CGC Terrapin — NUOA — position and weather

sailwx.info

Track history (hours):
 
Tides and Currents Weather Stations Pressure Air Temp Water Temp Dewpoint Dewpoint Depression Visibility Wind Speed Wind Dir Waves Ship Positions

CGC Terrapin

Last reported at 2018-May-23 01:11 UTC. Time now 2018-Jun-23 00:56 UTC.
Position N 44°44' W 124°08'.
Warning: this ship's position is 30 days out of date.

Length 26 m; draft 1.7 m.

Type: Law enforcement. MMSI: 366999651.

Date/timePositionNaut miles runAvg speedWind from/ knotsBaromVisibWave heightAir tempDewpointWater temp
2018-May-23 01:11N 44°44' W 124°08'2 9.8
2018-May-23 01:00N 44°46' W 124°08'6 9.9
2018-May-23 00:24N 44°52' W 124°07'8 4.7
2018-May-22 22:40N 44°43' W 124°08'16 9.9
2018-May-22 21:02N 44°27' W 124°10'110.0
2018-May-22 20:57N 44°26' W 124°10'510.1
2018-May-22 20:24N 44°21' W 124°11'1 0.4
2018-May-22 16:40N 44°22' W 124°11'211.2
2018-May-22 16:29N 44°24' W 124°10'  
2018-May-15 20:28N 45°10' W 124°06'1015.6
2018-May-15 19:49N 45°20' W 124°04'515.8
2018-May-15 19:30N 45°25' W 124°03'815.7
2018-May-15 19:01N 45°33' W 124°04'815.6
2018-May-15 18:30N 45°40' W 124°06'1115.5
2018-May-15 17:49N 45°51' W 124°09'515.6
2018-May-15 17:30N 45°56' W 124°10'815.4
2018-May-15 17:00N 46°03' W 124°12'714.9
2018-May-15 16:30N 46°11' W 124°13'714.2
2018-May-15 16:00N 46°18' W 124°14'714.3
2018-May-15 15:31N 46°25' W 124°14'815.2
2018-May-15 15:00N 46°32' W 124°15'714.8
2018-May-15 14:30N 46°40' W 124°16'714.8
2018-May-15 14:00N 46°47' W 124°17'714.4
2018-May-15 13:30N 46°54' W 124°18'55 7.4
2018-May-15 06:08N 47°47' W 124°42'7 7.0
2018-May-15 05:12N 47°53' W 124°45'2 7.2
2018-May-15 04:58N 47°54' W 124°45'1910.8
2018-May-15 03:12N 48°13' W 124°50'311.7
2018-May-15 02:58N 48°16' W 124°49'613.2
2018-May-15 02:30N 48°22' W 124°48'611.6
2018-May-15 02:00N 48°25' W 124°41'815.7
2018-May-15 01:30N 48°22' W 124°31'815.0
2018-May-15 00:59N 48°19' W 124°20'814.5
2018-May-15 00:25N 48°15' W 124°09'  
Track history (hours):
 
Tides and Currents Weather Stations Pressure Air Temp Water Temp Dewpoint Dewpoint Depression Visibility Wind Speed Wind Dir Waves Ship Positions

CGC Terrapin

Last reported at 2018-May-23 01:11 UTC. Time now 2018-Jun-23 00:56 UTC.
Position N 44°44' W 124°08'.
Warning: this ship's position is 30 days out of date.

Length 26 m; draft 1.7 m.

Type: Law enforcement. MMSI: 366999651.

Date/timePositionNaut miles runAvg speedWind from/ knotsBaromVisibWave heightAir tempDewpointWater temp
2018-May-23 01:11N 44°44' W 124°08'2 9.8
2018-May-23 01:00N 44°46' W 124°08'6 9.9
2018-May-23 00:24N 44°52' W 124°07'8 4.7
2018-May-22 22:40N 44°43' W 124°08'16 9.9
2018-May-22 21:02N 44°27' W 124°10'110.0
2018-May-22 20:57N 44°26' W 124°10'510.1
2018-May-22 20:24N 44°21' W 124°11'1 0.4
2018-May-22 16:40N 44°22' W 124°11'211.2
2018-May-22 16:29N 44°24' W 124°10'  
2018-May-15 20:28N 45°10' W 124°06'1015.6
2018-May-15 19:49N 45°20' W 124°04'515.8
2018-May-15 19:30N 45°25' W 124°03'815.7
2018-May-15 19:01N 45°33' W 124°04'815.6
2018-May-15 18:30N 45°40' W 124°06'1115.5
2018-May-15 17:49N 45°51' W 124°09'515.6
2018-May-15 17:30N 45°56' W 124°10'815.4
2018-May-15 17:00N 46°03' W 124°12'714.9
2018-May-15 16:30N 46°11' W 124°13'714.2
2018-May-15 16:00N 46°18' W 124°14'714.3
2018-May-15 15:31N 46°25' W 124°14'815.2
2018-May-15 15:00N 46°32' W 124°15'714.8
2018-May-15 14:30N 46°40' W 124°16'714.8
2018-May-15 14:00N 46°47' W 124°17'714.4
2018-May-15 13:30N 46°54' W 124°18'55 7.4
2018-May-15 06:08N 47°47' W 124°42'7 7.0
2018-May-15 05:12N 47°53' W 124°45'2 7.2
2018-May-15 04:58N 47°54' W 124°45'1910.8
2018-May-15 03:12N 48°13' W 124°50'311.7
2018-May-15 02:58N 48°16' W 124°49'613.2
2018-May-15 02:30N 48°22' W 124°48'611.6
2018-May-15 02:00N 48°25' W 124°41'815.7
2018-May-15 01:30N 48°22' W 124°31'815.0
2018-May-15 00:59N 48°19' W 124°20'814.5
2018-May-15 00:25N 48°15' W 124°09'  

Dump ship's entire track history